sensor_id;sensor_type;location;lat;lon;timestamp;P1;durP1;ratioP1;P2;durP2;ratioP2
30185;SDS011;31152;49.190;8.122;2022-11-03T00:01:42;18.67;;;4.40;;
30185;SDS011;31152;49.190;8.122;2022-11-03T00:04:11;16.33;;;4.93;;
30185;SDS011;31152;49.190;8.122;2022-11-03T00:06:40;20.25;;;4.32;;
30185;SDS011;31152;49.190;8.122;2022-11-03T00:09:09;17.77;;;5.00;;
30185;SDS011;31152;49.190;8.122;2022-11-03T00:11:38;17.50;;;5.22;;
30185;SDS011;31152;49.190;8.122;2022-11-03T00:14:06;18.42;;;4.80;;
30185;SDS011;31152;49.190;8.122;2022-11-03T00:16:36;11.77;;;4.47;;
30185;SDS011;31152;49.190;8.122;2022-11-03T00:19:05;13.30;;;4.53;;
30185;SDS011;31152;49.190;8.122;2022-11-03T00:21:32;15.57;;;4.35;;
30185;SDS011;31152;49.190;8.122;2022-11-03T00:23:59;14.13;;;4.28;;
30185;SDS011;31152;49.190;8.122;2022-11-03T00:26:32;10.15;;;4.65;;
30185;SDS011;31152;49.190;8.122;2022-11-03T00:29:08;15.10;;;5.35;;
30185;SDS011;31152;49.190;8.122;2022-11-03T00:31:36;11.43;;;4.00;;
30185;SDS011;31152;49.190;8.122;2022-11-03T00:34:05;13.07;;;4.50;;
30185;SDS011;31152;49.190;8.122;2022-11-03T00:36:34;18.08;;;4.55;;
30185;SDS011;31152;49.190;8.122;2022-11-03T00:39:18;19.13;;;5.53;;
30185;SDS011;31152;49.190;8.122;2022-11-03T00:41:45;20.20;;;6.03;;
30185;SDS011;31152;49.190;8.122;2022-11-03T00:44:12;19.80;;;4.95;;
30185;SDS011;31152;49.190;8.122;2022-11-03T00:46:38;15.32;;;4.70;;
30185;SDS011;31152;49.190;8.122;2022-11-03T00:49:05;15.43;;;5.85;;
30185;SDS011;31152;49.190;8.122;2022-11-03T00:51:32;15.93;;;4.82;;
30185;SDS011;31152;49.190;8.122;2022-11-03T00:54:02;14.32;;;4.93;;
30185;SDS011;31152;49.190;8.122;2022-11-03T00:56:31;14.73;;;4.60;;
30185;SDS011;31152;49.190;8.122;2022-11-03T00:59:03;23.05;;;4.75;;
30185;SDS011;31152;49.190;8.122;2022-11-03T01:01:31;22.50;;;6.50;;
30185;SDS011;31152;49.190;8.122;2022-11-03T01:04:11;18.45;;;4.78;;
30185;SDS011;31152;49.190;8.122;2022-11-03T01:06:57;17.90;;;5.28;;
30185;SDS011;31152;49.190;8.122;2022-11-03T01:09:29;14.88;;;4.90;;
30185;SDS011;31152;49.190;8.122;2022-11-03T01:12:03;11.45;;;5.32;;
30185;SDS011;31152;49.190;8.122;2022-11-03T01:17:13;14.85;;;4.53;;
30185;SDS011;31152;49.190;8.122;2022-11-03T01:19:44;22.67;;;5.38;;
30185;SDS011;31152;49.190;8.122;2022-11-03T01:22:12;16.20;;;5.18;;
30185;SDS011;31152;49.190;8.122;2022-11-03T01:24:43;23.13;;;5.40;;
30185;SDS011;31152;49.190;8.122;2022-11-03T01:27:14;20.23;;;5.72;;
30185;SDS011;31152;49.190;8.122;2022-11-03T01:29:42;19.38;;;5.88;;
30185;SDS011;31152;49.190;8.122;2022-11-03T01:32:12;17.67;;;5.57;;
30185;SDS011;31152;49.190;8.122;2022-11-03T01:34:39;22.05;;;5.65;;
30185;SDS011;31152;49.190;8.122;2022-11-03T01:37:06;17.92;;;5.00;;
30185;SDS011;31152;49.190;8.122;2022-11-03T01:39:33;18.60;;;5.68;;
30185;SDS011;31152;49.190;8.122;2022-11-03T01:41:59;15.75;;;5.72;;
30185;SDS011;31152;49.190;8.122;2022-11-03T01:57:55;12.93;;;4.85;;
30185;SDS011;31152;49.190;8.122;2022-11-03T02:00:27;22.10;;;5.63;;
30185;SDS011;31152;49.190;8.122;2022-11-03T02:02:56;17.27;;;5.32;;
30185;SDS011;31152;49.190;8.122;2022-11-03T02:05:23;19.20;;;6.22;;
30185;SDS011;31152;49.190;8.122;2022-11-03T02:10:26;16.40;;;5.40;;
30185;SDS011;31152;49.190;8.122;2022-11-03T02:12:53;18.60;;;5.07;;
30185;SDS011;31152;49.190;8.122;2022-11-03T02:15:21;18.45;;;5.10;;
30185;SDS011;31152;49.190;8.122;2022-11-03T02:17:50;18.00;;;5.20;;
30185;SDS011;31152;49.190;8.122;2022-11-03T02:20:20;22.23;;;5.47;;
30185;SDS011;31152;49.190;8.122;2022-11-03T02:22:58;25.00;;;5.20;;
30185;SDS011;31152;49.190;8.122;2022-11-03T02:25:42;15.10;;;5.18;;
30185;SDS011;31152;49.190;8.122;2022-11-03T02:28:14;19.80;;;5.57;;
30185;SDS011;31152;49.190;8.122;2022-11-03T02:31:29;18.83;;;5.35;;
30185;SDS011;31152;49.190;8.122;2022-11-03T02:33:44;25.83;;;5.30;;
30185;SDS011;31152;49.190;8.122;2022-11-03T02:39:00;15.65;;;5.05;;
30185;SDS011;31152;49.190;8.122;2022-11-03T02:41:30;13.23;;;4.85;;
30185;SDS011;31152;49.190;8.122;2022-11-03T02:44:00;21.33;;;5.40;;
30185;SDS011;31152;49.190;8.122;2022-11-03T02:46:30;18.67;;;4.88;;
30185;SDS011;31152;49.190;8.122;2022-11-03T02:48:59;19.40;;;4.22;;
30185;SDS011;31152;49.190;8.122;2022-11-03T02:51:26;12.93;;;4.25;;
30185;SDS011;31152;49.190;8.122;2022-11-03T02:54:05;18.70;;;4.15;;
30185;SDS011;31152;49.190;8.122;2022-11-03T02:56:48;14.10;;;4.28;;
30185;SDS011;31152;49.190;8.122;2022-11-03T02:59:20;18.20;;;4.63;;
30185;SDS011;31152;49.190;8.122;2022-11-03T03:01:59;18.42;;;5.10;;
30185;SDS011;31152;49.190;8.122;2022-11-03T03:04:50;16.40;;;4.55;;
30185;SDS011;31152;49.190;8.122;2022-11-03T03:07:27;17.10;;;4.70;;
30185;SDS011;31152;49.190;8.122;2022-11-03T03:09:59;15.13;;;4.03;;
30185;SDS011;31152;49.190;8.122;2022-11-03T03:12:38;15.60;;;4.15;;
30185;SDS011;31152;49.190;8.122;2022-11-03T03:15:10;16.93;;;4.33;;
30185;SDS011;31152;49.190;8.122;2022-11-03T03:22:54;14.05;;;3.90;;
30185;SDS011;31152;49.190;8.122;2022-11-03T03:25:31;15.48;;;4.03;;
30185;SDS011;31152;49.190;8.122;2022-11-03T03:28:03;15.48;;;4.93;;
30185;SDS011;31152;49.190;8.122;2022-11-03T03:30:36;16.80;;;5.00;;
30185;SDS011;31152;49.190;8.122;2022-11-03T03:33:06;21.85;;;4.75;;
30185;SDS011;31152;49.190;8.122;2022-11-03T03:35:34;16.35;;;4.78;;
30185;SDS011;31152;49.190;8.122;2022-11-03T03:38:04;17.00;;;4.32;;
30185;SDS011;31152;49.190;8.122;2022-11-03T03:40:36;19.42;;;5.72;;
30185;SDS011;31152;49.190;8.122;2022-11-03T03:43:06;17.50;;;5.07;;
30185;SDS011;31152;49.190;8.122;2022-11-03T03:45:37;15.20;;;5.35;;
30185;SDS011;31152;49.190;8.122;2022-11-03T03:48:04;21.33;;;4.47;;
30185;SDS011;31152;49.190;8.122;2022-11-03T03:50:33;19.52;;;4.43;;
30185;SDS011;31152;49.190;8.122;2022-11-03T03:53:04;17.30;;;4.05;;
30185;SDS011;31152;49.190;8.122;2022-11-03T03:55:41;17.17;;;4.55;;
30185;SDS011;31152;49.190;8.122;2022-11-03T03:58:10;13.13;;;3.95;;
30185;SDS011;31152;49.190;8.122;2022-11-03T04:00:39;16.55;;;5.68;;
30185;SDS011;31152;49.190;8.122;2022-11-03T04:03:12;15.05;;;3.95;;
30185;SDS011;31152;49.190;8.122;2022-11-03T04:05:43;22.70;;;4.75;;
30185;SDS011;31152;49.190;8.122;2022-11-03T04:08:11;14.40;;;4.32;;
30185;SDS011;31152;49.190;8.122;2022-11-03T04:10:39;16.20;;;4.07;;
30185;SDS011;31152;49.190;8.122;2022-11-03T04:13:07;14.25;;;4.10;;
30185;SDS011;31152;49.190;8.122;2022-11-03T04:15:54;16.27;;;4.72;;
30185;SDS011;31152;49.190;8.122;2022-11-03T04:18:40;12.25;;;3.53;;
30185;SDS011;31152;49.190;8.122;2022-11-03T04:21:25;15.88;;;4.75;;
30185;SDS011;31152;49.190;8.122;2022-11-03T04:24:10;16.30;;;4.55;;
30185;SDS011;31152;49.190;8.122;2022-11-03T04:26:36;15.30;;;4.78;;
30185;SDS011;31152;49.190;8.122;2022-11-03T04:29:06;20.90;;;4.85;;
30185;SDS011;31152;49.190;8.122;2022-11-03T04:31:37;22.60;;;5.20;;
30185;SDS011;31152;49.190;8.122;2022-11-03T04:34:04;13.82;;;4.47;;
30185;SDS011;31152;49.190;8.122;2022-11-03T04:36:39;18.33;;;4.55;;
30185;SDS011;31152;49.190;8.122;2022-11-03T04:39:14;15.35;;;4.47;;
30185;SDS011;31152;49.190;8.122;2022-11-03T04:41:44;14.95;;;4.47;;
30185;SDS011;31152;49.190;8.122;2022-11-03T04:44:13;13.30;;;4.53;;
30185;SDS011;31152;49.190;8.122;2022-11-03T04:46:42;18.15;;;4.65;;
30185;SDS011;31152;49.190;8.122;2022-11-03T04:49:11;12.02;;;4.50;;
30185;SDS011;31152;49.190;8.122;2022-11-03T04:51:45;13.00;;;4.40;;
30185;SDS011;31152;49.190;8.122;2022-11-03T04:54:20;12.93;;;4.55;;
30185;SDS011;31152;49.190;8.122;2022-11-03T04:56:48;14.68;;;4.18;;
30185;SDS011;31152;49.190;8.122;2022-11-03T04:59:15;12.57;;;3.88;;
30185;SDS011;31152;49.190;8.122;2022-11-03T05:01:42;15.25;;;4.15;;
30185;SDS011;31152;49.190;8.122;2022-11-03T05:04:14;15.10;;;4.03;;
30185;SDS011;31152;49.190;8.122;2022-11-03T05:06:51;14.07;;;4.18;;
30185;SDS011;31152;49.190;8.122;2022-11-03T05:09:20;12.70;;;4.03;;
30185;SDS011;31152;49.190;8.122;2022-11-03T05:11:51;18.15;;;4.75;;
30185;SDS011;31152;49.190;8.122;2022-11-03T05:16:47;11.40;;;4.32;;
30185;SDS011;31152;49.190;8.122;2022-11-03T05:22:05;10.93;;;3.65;;
30185;SDS011;31152;49.190;8.122;2022-11-03T05:24:42;14.13;;;3.72;;
30185;SDS011;31152;49.190;8.122;2022-11-03T05:27:15;12.95;;;4.07;;
30185;SDS011;31152;49.190;8.122;2022-11-03T05:29:46;21.17;;;4.50;;
30185;SDS011;31152;49.190;8.122;2022-11-03T05:32:21;11.73;;;3.72;;
30185;SDS011;31152;49.190;8.122;2022-11-03T05:34:51;14.93;;;4.00;;
30185;SDS011;31152;49.190;8.122;2022-11-03T05:37:21;14.73;;;4.15;;
30185;SDS011;31152;49.190;8.122;2022-11-03T05:39:59;12.85;;;4.13;;
30185;SDS011;31152;49.190;8.122;2022-11-03T05:42:41;20.27;;;4.45;;
30185;SDS011;31152;49.190;8.122;2022-11-03T05:45:23;10.20;;;3.88;;
30185;SDS011;31152;49.190;8.122;2022-11-03T05:47:55;15.10;;;4.10;;
30185;SDS011;31152;49.190;8.122;2022-11-03T05:50:24;14.27;;;3.72;;
30185;SDS011;31152;49.190;8.122;2022-11-03T05:52:53;12.48;;;4.03;;
30185;SDS011;31152;49.190;8.122;2022-11-03T05:55:26;14.60;;;3.90;;
30185;SDS011;31152;49.190;8.122;2022-11-03T05:57:58;12.88;;;4.00;;
30185;SDS011;31152;49.190;8.122;2022-11-03T06:00:35;16.08;;;4.00;;
30185;SDS011;31152;49.190;8.122;2022-11-03T06:03:13;19.27;;;5.45;;
30185;SDS011;31152;49.190;8.122;2022-11-03T06:05:44;16.83;;;4.20;;
30185;SDS011;31152;49.190;8.122;2022-11-03T06:08:13;17.73;;;4.05;;
30185;SDS011;31152;49.190;8.122;2022-11-03T06:10:45;15.65;;;4.25;;
30185;SDS011;31152;49.190;8.122;2022-11-03T06:13:28;15.35;;;4.22;;
30185;SDS011;31152;49.190;8.122;2022-11-03T06:16:09;12.88;;;4.05;;
30185;SDS011;31152;49.190;8.122;2022-11-03T06:18:54;18.40;;;4.50;;
30185;SDS011;31152;49.190;8.122;2022-11-03T06:21:25;14.63;;;4.85;;
30185;SDS011;31152;49.190;8.122;2022-11-03T06:23:51;12.00;;;3.75;;
30185;SDS011;31152;49.190;8.122;2022-11-03T06:26:22;17.58;;;5.00;;
30185;SDS011;31152;49.190;8.122;2022-11-03T06:28:52;13.82;;;4.35;;
30185;SDS011;31152;49.190;8.122;2022-11-03T06:31:20;11.60;;;3.45;;
30185;SDS011;31152;49.190;8.122;2022-11-03T06:33:52;14.57;;;4.00;;
30185;SDS011;31152;49.190;8.122;2022-11-03T06:36:21;13.15;;;3.88;;
30185;SDS011;31152;49.190;8.122;2022-11-03T06:38:56;15.82;;;3.67;;
30185;SDS011;31152;49.190;8.122;2022-11-03T06:41:38;12.18;;;3.97;;
30185;SDS011;31152;49.190;8.122;2022-11-03T06:46:56;17.48;;;4.57;;
30185;SDS011;31152;49.190;8.122;2022-11-03T06:49:27;13.30;;;4.20;;
30185;SDS011;31152;49.190;8.122;2022-11-03T06:51:57;14.82;;;4.65;;
30185;SDS011;31152;49.190;8.122;2022-11-03T06:54:34;15.85;;;4.10;;
30185;SDS011;31152;49.190;8.122;2022-11-03T06:57:01;19.63;;;4.25;;
30185;SDS011;31152;49.190;8.122;2022-11-03T06:59:27;18.65;;;5.50;;
30185;SDS011;31152;49.190;8.122;2022-11-03T07:01:54;21.83;;;4.93;;
30185;SDS011;31152;49.190;8.122;2022-11-03T07:04:21;15.88;;;5.05;;
30185;SDS011;31152;49.190;8.122;2022-11-03T07:06:54;21.33;;;4.75;;
30185;SDS011;31152;49.190;8.122;2022-11-03T07:09:24;12.20;;;4.78;;
30185;SDS011;31152;49.190;8.122;2022-11-03T07:11:52;15.73;;;4.93;;
30185;SDS011;31152;49.190;8.122;2022-11-03T07:14:28;15.43;;;4.47;;
30185;SDS011;31152;49.190;8.122;2022-11-03T07:17:02;16.20;;;4.38;;
30185;SDS011;31152;49.190;8.122;2022-11-03T07:19:41;12.65;;;4.32;;
30185;SDS011;31152;49.190;8.122;2022-11-03T07:22:18;18.88;;;4.68;;
30185;SDS011;31152;49.190;8.122;2022-11-03T07:24:49;17.88;;;4.68;;
30185;SDS011;31152;49.190;8.122;2022-11-03T07:27:20;19.63;;;4.65;;
30185;SDS011;31152;49.190;8.122;2022-11-03T07:30:01;15.98;;;4.50;;
30185;SDS011;31152;49.190;8.122;2022-11-03T07:32:39;16.30;;;4.70;;
30185;SDS011;31152;49.190;8.122;2022-11-03T07:35:19;11.10;;;3.95;;
30185;SDS011;31152;49.190;8.122;2022-11-03T07:38:08;14.80;;;4.47;;
30185;SDS011;31152;49.190;8.122;2022-11-03T07:40:39;21.70;;;5.25;;
30185;SDS011;31152;49.190;8.122;2022-11-03T07:50:59;23.50;;;4.97;;
30185;SDS011;31152;49.190;8.122;2022-11-03T07:53:47;18.88;;;4.75;;
30185;SDS011;31152;49.190;8.122;2022-11-03T07:56:42;19.00;;;5.07;;
30185;SDS011;31152;49.190;8.122;2022-11-03T07:59:25;15.38;;;5.35;;
30185;SDS011;31152;49.190;8.122;2022-11-03T08:02:11;17.83;;;6.47;;
30185;SDS011;31152;49.190;8.122;2022-11-03T08:07:17;19.08;;;5.40;;
30185;SDS011;31152;49.190;8.122;2022-11-03T08:09:44;20.35;;;6.00;;
30185;SDS011;31152;49.190;8.122;2022-11-03T08:12:10;17.60;;;5.95;;
30185;SDS011;31152;49.190;8.122;2022-11-03T08:14:37;13.65;;;5.93;;
30185;SDS011;31152;49.190;8.122;2022-11-03T08:17:04;19.02;;;5.78;;
30185;SDS011;31152;49.190;8.122;2022-11-03T08:19:33;24.45;;;5.68;;
30185;SDS011;31152;49.190;8.122;2022-11-03T08:21:59;21.08;;;6.07;;
30185;SDS011;31152;49.190;8.122;2022-11-03T08:24:26;21.63;;;5.95;;
30185;SDS011;31152;49.190;8.122;2022-11-03T08:26:53;19.23;;;5.32;;
30185;SDS011;31152;49.190;8.122;2022-11-03T08:29:22;23.17;;;5.88;;
30185;SDS011;31152;49.190;8.122;2022-11-03T08:31:52;16.98;;;5.43;;
30185;SDS011;31152;49.190;8.122;2022-11-03T08:34:21;22.42;;;5.72;;
30185;SDS011;31152;49.190;8.122;2022-11-03T08:36:48;15.43;;;5.32;;
30185;SDS011;31152;49.190;8.122;2022-11-03T08:39:17;24.17;;;6.28;;
30185;SDS011;31152;49.190;8.122;2022-11-03T08:41:43;15.40;;;5.72;;
30185;SDS011;31152;49.190;8.122;2022-11-03T08:44:10;31.00;;;6.15;;
30185;SDS011;31152;49.190;8.122;2022-11-03T08:46:37;20.05;;;6.60;;
30185;SDS011;31152;49.190;8.122;2022-11-03T08:49:03;20.60;;;6.72;;
30185;SDS011;31152;49.190;8.122;2022-11-03T08:51:30;21.92;;;7.05;;
30185;SDS011;31152;49.190;8.122;2022-11-03T08:53:57;23.30;;;7.05;;
30185;SDS011;31152;49.190;8.122;2022-11-03T08:56:26;19.02;;;6.45;;
30185;SDS011;31152;49.190;8.122;2022-11-03T08:58:53;22.88;;;8.30;;
30185;SDS011;31152;49.190;8.122;2022-11-03T09:01:21;22.13;;;8.50;;
30185;SDS011;31152;49.190;8.122;2022-11-03T09:03:48;20.90;;;9.43;;
30185;SDS011;31152;49.190;8.122;2022-11-03T09:06:15;21.85;;;9.00;;
30185;SDS011;31152;49.190;8.122;2022-11-03T09:08:46;25.52;;;9.45;;
30185;SDS011;31152;49.190;8.122;2022-11-03T09:11:35;31.20;;;12.00;;
30185;SDS011;31152;49.190;8.122;2022-11-03T09:14:02;25.63;;;10.98;;
30185;SDS011;31152;49.190;8.122;2022-11-03T09:16:29;28.55;;;9.77;;
30185;SDS011;31152;49.190;8.122;2022-11-03T09:18:55;26.90;;;10.43;;
30185;SDS011;31152;49.190;8.122;2022-11-03T09:21:24;24.48;;;10.68;;
30185;SDS011;31152;49.190;8.122;2022-11-03T09:23:51;22.77;;;10.80;;
30185;SDS011;31152;49.190;8.122;2022-11-03T09:26:18;24.83;;;11.38;;
30185;SDS011;31152;49.190;8.122;2022-11-03T09:28:45;24.55;;;11.18;;
30185;SDS011;31152;49.190;8.122;2022-11-03T09:31:12;24.23;;;11.23;;
30185;SDS011;31152;49.190;8.122;2022-11-03T09:33:39;25.80;;;11.80;;
30185;SDS011;31152;49.190;8.122;2022-11-03T09:36:05;26.88;;;11.52;;
30185;SDS011;31152;49.190;8.122;2022-11-03T09:38:35;28.27;;;12.77;;
30185;SDS011;31152;49.190;8.122;2022-11-03T09:41:03;25.52;;;11.02;;
30185;SDS011;31152;49.190;8.122;2022-11-03T09:43:53;24.88;;;10.35;;
30185;SDS011;31152;49.190;8.122;2022-11-03T09:46:28;15.75;;;9.75;;
30185;SDS011;31152;49.190;8.122;2022-11-03T09:48:55;20.00;;;9.82;;
30185;SDS011;31152;49.190;8.122;2022-11-03T09:51:24;20.08;;;9.27;;
30185;SDS011;31152;49.190;8.122;2022-11-03T09:53:57;21.42;;;9.68;;
30185;SDS011;31152;49.190;8.122;2022-11-03T09:56:28;20.75;;;9.50;;
30185;SDS011;31152;49.190;8.122;2022-11-03T09:58:58;18.80;;;9.45;;
30185;SDS011;31152;49.190;8.122;2022-11-03T10:01:29;22.38;;;10.40;;
30185;SDS011;31152;49.190;8.122;2022-11-03T10:03:57;21.17;;;9.30;;
30185;SDS011;31152;49.190;8.122;2022-11-03T10:06:25;19.60;;;8.90;;
30185;SDS011;31152;49.190;8.122;2022-11-03T10:08:52;18.42;;;8.98;;
30185;SDS011;31152;49.190;8.122;2022-11-03T10:11:21;18.95;;;9.93;;
30185;SDS011;31152;49.190;8.122;2022-11-03T10:13:49;20.75;;;9.93;;
30185;SDS011;31152;49.190;8.122;2022-11-03T10:16:20;24.85;;;10.55;;
30185;SDS011;31152;49.190;8.122;2022-11-03T10:18:48;23.63;;;10.75;;
30185;SDS011;31152;49.190;8.122;2022-11-03T10:21:28;30.02;;;10.30;;
30185;SDS011;31152;49.190;8.122;2022-11-03T10:23:56;20.02;;;10.10;;
30185;SDS011;31152;49.190;8.122;2022-11-03T10:26:23;19.33;;;9.23;;
30185;SDS011;31152;49.190;8.122;2022-11-03T10:29:05;20.25;;;8.90;;
30185;SDS011;31152;49.190;8.122;2022-11-03T10:31:44;20.58;;;9.48;;
30185;SDS011;31152;49.190;8.122;2022-11-03T10:37:13;19.40;;;8.68;;
30185;SDS011;31152;49.190;8.122;2022-11-03T10:39:51;22.98;;;9.52;;
30185;SDS011;31152;49.190;8.122;2022-11-03T10:42:22;21.40;;;8.98;;
30185;SDS011;31152;49.190;8.122;2022-11-03T10:45:08;22.02;;;8.90;;
30185;SDS011;31152;49.190;8.122;2022-11-03T10:47:39;20.02;;;8.73;;
30185;SDS011;31152;49.190;8.122;2022-11-03T10:50:19;20.20;;;9.65;;
30185;SDS011;31152;49.190;8.122;2022-11-03T10:52:51;20.23;;;10.25;;
30185;SDS011;31152;49.190;8.122;2022-11-03T10:55:19;21.65;;;9.38;;
30185;SDS011;31152;49.190;8.122;2022-11-03T10:57:51;21.50;;;9.90;;
30185;SDS011;31152;49.190;8.122;2022-11-03T11:00:21;21.83;;;9.45;;
30185;SDS011;31152;49.190;8.122;2022-11-03T11:02:49;20.83;;;9.93;;
30185;SDS011;31152;49.190;8.122;2022-11-03T11:05:24;19.77;;;9.38;;
30185;SDS011;31152;49.190;8.122;2022-11-03T11:07:51;23.33;;;9.25;;
30185;SDS011;31152;49.190;8.122;2022-11-03T11:10:20;17.85;;;8.55;;
30185;SDS011;31152;49.190;8.122;2022-11-03T11:15:42;20.88;;;9.15;;
30185;SDS011;31152;49.190;8.122;2022-11-03T11:18:58;16.92;;;7.97;;
30185;SDS011;31152;49.190;8.122;2022-11-03T11:23:47;20.00;;;8.13;;
30185;SDS011;31152;49.190;8.122;2022-11-03T11:26:15;21.60;;;8.38;;
30185;SDS011;31152;49.190;8.122;2022-11-03T11:31:43;17.77;;;8.55;;
30185;SDS011;31152;49.190;8.122;2022-11-03T11:37:30;17.35;;;8.32;;
30185;SDS011;31152;49.190;8.122;2022-11-03T11:39:42;19.67;;;8.27;;
30185;SDS011;31152;49.190;8.122;2022-11-03T11:42:10;17.83;;;7.82;;
30185;SDS011;31152;49.190;8.122;2022-11-03T11:44:45;28.80;;;16.63;;
30185;SDS011;31152;49.190;8.122;2022-11-03T11:47:24;17.23;;;7.30;;
30185;SDS011;31152;49.190;8.122;2022-11-03T11:52:33;16.42;;;7.63;;
30185;SDS011;31152;49.190;8.122;2022-11-03T11:57:52;18.90;;;7.15;;
30185;SDS011;31152;49.190;8.122;2022-11-03T12:00:23;15.95;;;6.95;;
30185;SDS011;31152;49.190;8.122;2022-11-03T12:02:52;16.73;;;7.35;;
30185;SDS011;31152;49.190;8.122;2022-11-03T12:07:55;14.35;;;6.68;;
30185;SDS011;31152;49.190;8.122;2022-11-03T12:10:26;13.98;;;7.35;;
30185;SDS011;31152;49.190;8.122;2022-11-03T12:12:55;14.82;;;6.88;;
30185;SDS011;31152;49.190;8.122;2022-11-03T12:21:08;16.25;;;6.68;;
30185;SDS011;31152;49.190;8.122;2022-11-03T12:23:37;15.65;;;6.28;;
30185;SDS011;31152;49.190;8.122;2022-11-03T12:28:54;14.02;;;6.55;;
30185;SDS011;31152;49.190;8.122;2022-11-03T12:31:23;14.80;;;5.95;;
30185;SDS011;31152;49.190;8.122;2022-11-03T12:33:49;18.27;;;7.03;;
30185;SDS011;31152;49.190;8.122;2022-11-03T12:36:16;15.82;;;6.40;;
30185;SDS011;31152;49.190;8.122;2022-11-03T12:38:43;12.70;;;6.25;;
30185;SDS011;31152;49.190;8.122;2022-11-03T12:41:09;15.35;;;6.00;;
30185;SDS011;31152;49.190;8.122;2022-11-03T12:43:52;13.10;;;6.03;;
30185;SDS011;31152;49.190;8.122;2022-11-03T12:46:21;16.15;;;5.47;;
30185;SDS011;31152;49.190;8.122;2022-11-03T12:48:50;14.38;;;5.78;;
30185;SDS011;31152;49.190;8.122;2022-11-03T12:51:19;14.10;;;5.90;;
30185;SDS011;31152;49.190;8.122;2022-11-03T12:53:48;13.43;;;5.95;;
30185;SDS011;31152;49.190;8.122;2022-11-03T12:56:15;11.98;;;5.90;;
30185;SDS011;31152;49.190;8.122;2022-11-03T12:58:46;12.27;;;5.30;;
30185;SDS011;31152;49.190;8.122;2022-11-03T13:01:12;13.73;;;5.10;;
30185;SDS011;31152;49.190;8.122;2022-11-03T13:03:44;12.93;;;5.32;;
30185;SDS011;31152;49.190;8.122;2022-11-03T13:06:11;17.23;;;5.40;;
30185;SDS011;31152;49.190;8.122;2022-11-03T13:08:40;13.82;;;5.78;;
30185;SDS011;31152;49.190;8.122;2022-11-03T13:11:12;12.65;;;5.57;;
30185;SDS011;31152;49.190;8.122;2022-11-03T13:13:59;16.42;;;6.30;;
30185;SDS011;31152;49.190;8.122;2022-11-03T13:16:29;13.80;;;6.13;;
30185;SDS011;31152;49.190;8.122;2022-11-03T13:19:01;16.60;;;6.05;;
30185;SDS011;31152;49.190;8.122;2022-11-03T13:21:30;22.23;;;6.45;;
30185;SDS011;31152;49.190;8.122;2022-11-03T13:23:57;18.48;;;5.80;;
30185;SDS011;31152;49.190;8.122;2022-11-03T13:26:24;21.58;;;5.90;;
30185;SDS011;31152;49.190;8.122;2022-11-03T13:28:50;14.80;;;6.65;;
30185;SDS011;31152;49.190;8.122;2022-11-03T13:31:22;16.50;;;6.20;;
30185;SDS011;31152;49.190;8.122;2022-11-03T13:33:49;25.77;;;7.43;;
30185;SDS011;31152;49.190;8.122;2022-11-03T13:36:18;18.92;;;6.68;;
30185;SDS011;31152;49.190;8.122;2022-11-03T13:38:44;29.75;;;10.20;;
30185;SDS011;31152;49.190;8.122;2022-11-03T13:41:11;13.57;;;6.00;;
30185;SDS011;31152;49.190;8.122;2022-11-03T13:43:38;11.57;;;5.10;;
30185;SDS011;31152;49.190;8.122;2022-11-03T13:46:07;20.45;;;5.97;;
30185;SDS011;31152;49.190;8.122;2022-11-03T13:48:33;17.60;;;5.75;;
30185;SDS011;31152;49.190;8.122;2022-11-03T13:51:20;16.15;;;6.90;;
30185;SDS011;31152;49.190;8.122;2022-11-03T13:53:47;18.80;;;6.65;;
30185;SDS011;31152;49.190;8.122;2022-11-03T13:56:34;15.45;;;5.85;;
30185;SDS011;31152;49.190;8.122;2022-11-03T13:59:20;19.52;;;6.20;;
30185;SDS011;31152;49.190;8.122;2022-11-03T14:01:52;19.23;;;5.85;;
30185;SDS011;31152;49.190;8.122;2022-11-03T14:04:41;15.85;;;6.30;;
30185;SDS011;31152;49.190;8.122;2022-11-03T14:07:09;14.73;;;5.80;;
30185;SDS011;31152;49.190;8.122;2022-11-03T14:09:36;18.35;;;6.45;;
30185;SDS011;31152;49.190;8.122;2022-11-03T14:12:08;16.13;;;5.97;;
30185;SDS011;31152;49.190;8.122;2022-11-03T14:14:53;33.95;;;8.63;;
30185;SDS011;31152;49.190;8.122;2022-11-03T14:17:20;13.93;;;6.20;;
30185;SDS011;31152;49.190;8.122;2022-11-03T14:19:46;16.45;;;5.95;;
30185;SDS011;31152;49.190;8.122;2022-11-03T14:22:21;12.18;;;5.97;;
30185;SDS011;31152;49.190;8.122;2022-11-03T14:24:49;19.15;;;7.28;;
30185;SDS011;31152;49.190;8.122;2022-11-03T14:27:17;17.70;;;5.90;;
30185;SDS011;31152;49.190;8.122;2022-11-03T14:29:45;12.70;;;6.03;;
30185;SDS011;31152;49.190;8.122;2022-11-03T14:32:15;16.55;;;5.43;;
30185;SDS011;31152;49.190;8.122;2022-11-03T14:34:42;13.88;;;5.53;;
30185;SDS011;31152;49.190;8.122;2022-11-03T14:37:10;14.85;;;5.47;;
30185;SDS011;31152;49.190;8.122;2022-11-03T14:39:37;16.27;;;5.65;;
30185;SDS011;31152;49.190;8.122;2022-11-03T14:42:05;13.70;;;5.82;;
30185;SDS011;31152;49.190;8.122;2022-11-03T14:44:37;11.43;;;5.53;;
30185;SDS011;31152;49.190;8.122;2022-11-03T14:47:05;23.92;;;6.40;;
30185;SDS011;31152;49.190;8.122;2022-11-03T14:49:37;19.58;;;6.80;;
30185;SDS011;31152;49.190;8.122;2022-11-03T14:52:06;14.98;;;6.00;;
30185;SDS011;31152;49.190;8.122;2022-11-03T14:54:33;16.27;;;6.43;;
30185;SDS011;31152;49.190;8.122;2022-11-03T14:57:03;14.85;;;5.65;;
30185;SDS011;31152;49.190;8.122;2022-11-03T14:59:34;18.77;;;6.95;;
30185;SDS011;31152;49.190;8.122;2022-11-03T15:02:01;14.25;;;6.30;;
30185;SDS011;31152;49.190;8.122;2022-11-03T15:04:29;15.60;;;6.85;;
30185;SDS011;31152;49.190;8.122;2022-11-03T15:06:56;20.67;;;7.15;;
30185;SDS011;31152;49.190;8.122;2022-11-03T15:09:23;19.95;;;6.88;;
30185;SDS011;31152;49.190;8.122;2022-11-03T15:11:50;16.17;;;6.15;;
30185;SDS011;31152;49.190;8.122;2022-11-03T15:14:16;17.88;;;6.65;;
30185;SDS011;31152;49.190;8.122;2022-11-03T15:16:43;19.08;;;7.60;;
30185;SDS011;31152;49.190;8.122;2022-11-03T15:19:11;26.77;;;6.70;;
30185;SDS011;31152;49.190;8.122;2022-11-03T15:21:40;20.50;;;7.05;;
30185;SDS011;31152;49.190;8.122;2022-11-03T15:24:07;17.02;;;6.93;;
30185;SDS011;31152;49.190;8.122;2022-11-03T15:26:56;16.42;;;7.13;;
30185;SDS011;31152;49.190;8.122;2022-11-03T15:29:23;20.90;;;7.90;;
30185;SDS011;31152;49.190;8.122;2022-11-03T15:31:50;17.55;;;6.40;;
30185;SDS011;31152;49.190;8.122;2022-11-03T15:34:17;16.65;;;7.35;;
30185;SDS011;31152;49.190;8.122;2022-11-03T15:36:43;16.83;;;7.22;;
30185;SDS011;31152;49.190;8.122;2022-11-03T15:39:12;15.93;;;7.43;;
30185;SDS011;31152;49.190;8.122;2022-11-03T15:41:42;19.45;;;7.03;;
30185;SDS011;31152;49.190;8.122;2022-11-03T15:44:09;20.98;;;7.53;;
30185;SDS011;31152;49.190;8.122;2022-11-03T15:46:38;21.80;;;7.10;;
30185;SDS011;31152;49.190;8.122;2022-11-03T15:49:05;15.80;;;7.05;;
30185;SDS011;31152;49.190;8.122;2022-11-03T15:51:31;19.67;;;7.85;;
30185;SDS011;31152;49.190;8.122;2022-11-03T15:53:58;14.93;;;7.88;;
30185;SDS011;31152;49.190;8.122;2022-11-03T15:56:25;20.30;;;7.43;;
30185;SDS011;31152;49.190;8.122;2022-11-03T15:58:52;18.08;;;7.25;;
30185;SDS011;31152;49.190;8.122;2022-11-03T16:01:24;17.55;;;7.72;;
30185;SDS011;31152;49.190;8.122;2022-11-03T16:03:51;18.05;;;7.20;;
30185;SDS011;31152;49.190;8.122;2022-11-03T16:06:17;21.95;;;8.18;;
30185;SDS011;31152;49.190;8.122;2022-11-03T16:09:00;15.52;;;6.88;;
30185;SDS011;31152;49.190;8.122;2022-11-03T16:11:26;19.25;;;7.32;;
30185;SDS011;31152;49.190;8.122;2022-11-03T16:13:53;16.67;;;6.32;;